Time;durP1;ratioP1;P1;durP2;ratioP2;P2;SDS_P1;SDS_P2;PMS_P1;PMS_P2;Temp;Humidity;BMP_temperature;BMP_pressure;BME280_temperature;BME280_humidity;BME280_pressure;Samples;Min_cycle;Max_cycle;Signal;HPM_P1;HPM_P2
2022/08/21 00:02:06;;;;;;;17.23;9.70;;;;;;;13.83;100.00;101554.59;7386817;19;20956;-57
2022/08/21 00:04:39;;;;;;;20.90;9.60;;;;;;;13.87;100.00;101535.75;7390502;19;20410;-52
2022/08/21 00:07:24;;;;;;;17.07;10.40;;;;;;;13.89;100.00;101525.41;7386010;19;20420;-57
2022/08/21 00:09:54;;;;;;;16.40;9.73;;;;;;;13.80;100.00;101522.44;7392643;19;20722;-57
2022/08/21 00:12:24;;;;;;;17.63;9.90;;;;;;;13.87;100.00;101509.81;7386016;19;20435;-55
2022/08/21 00:14:54;;;;;;;16.77;9.80;;;;;;;13.85;100.00;101501.06;7389705;19;20427;-54
2022/08/21 00:17:26;;;;;;;14.60;9.60;;;;;;;14.01;100.00;101501.69;7377638;19;20777;-54
2022/08/21 00:19:58;;;;;;;13.13;7.73;;;;;;;13.85;100.00;101490.69;7395191;19;20388;-54
2022/08/21 00:22:28;;;;;;;15.53;8.70;;;;;;;13.79;100.00;101494.75;7391920;19;20941;-58
2022/08/21 00:24:57;;;;;;;10.60;6.53;;;;;;;13.70;100.00;101497.84;7396205;19;20762;-57
2022/08/21 00:27:27;;;;;;;8.90;6.00;;;;;;;13.55;100.00;101498.09;7391503;19;20478;-55
2022/08/21 00:29:56;;;;;;;11.40;6.97;;;;;;;13.45;100.00;101491.63;7399220;19;20399;-51
2022/08/21 00:32:28;;;;;;;10.10;6.03;;;;;;;13.38;100.00;101482.69;7392285;19;20439;-56
2022/08/21 00:35:00;;;;;;;32.23;22.77;;;;;;;13.26;100.00;101477.91;7395843;19;20412;-53
2022/08/21 00:37:30;;;;;;;18.57;10.87;;;;;;;13.26;100.00;101466.63;7392052;19;20422;-58
2022/08/21 00:40:03;;;;;;;33.67;20.10;;;;;;;13.22;100.00;101461.34;7398800;19;20388;-56
2022/08/21 00:42:33;;;;;;;30.80;18.50;;;;;;;13.16;100.00;101458.47;7392115;19;20964;-56
2022/08/21 00:45:03;;;;;;;24.03;8.00;;;;;;;13.22;100.00;101445.78;7396166;19;20426;-56
2022/08/21 00:47:33;;;;;;;14.67;7.70;;;;;;;13.37;100.00;101442.94;7391970;19;20414;-51
2022/08/21 00:50:06;;;;;;;14.40;7.10;;;;;;;13.60;100.00;101439.56;7398255;19;20403;-56
2022/08/21 00:52:37;;;;;;;10.83;6.63;;;;;;;13.81;100.00;101436.03;7391408;19;20424;-59
2022/08/21 00:55:08;;;;;;;13.30;7.50;;;;;;;13.87;100.00;101437.19;7395818;19;20421;-59
2022/08/21 00:57:42;;;;;;;13.70;7.10;;;;;;;13.60;100.00;101443.00;7392473;19;20422;-57
2022/08/21 01:00:16;;;;;;;13.73;7.20;;;;;;;13.31;100.00;101454.75;7402278;19;20406;-53
2022/08/21 01:02:46;;;;;;;12.53;7.80;;;;;;;13.33;100.00;101458.31;7391465;19;20417;-55
2022/08/21 01:05:19;;;;;;;9.60;6.67;;;;;;;13.34;100.00;101454.91;7398918;19;20711;-58
2022/08/21 01:07:48;;;;;;;12.90;6.30;;;;;;;13.55;100.00;101448.84;7386175;19;20415;-54
2022/08/21 01:10:19;;;;;;;15.50;6.67;;;;;;;13.50;100.00;101453.84;7398208;19;20398;-53
2022/08/21 01:12:54;;;;;;;12.10;6.40;;;;;;;13.53;100.00;101458.28;7388274;19;20429;-56
2022/08/21 01:15:26;;;;;;;10.67;6.87;;;;;;;13.45;100.00;101452.75;7397216;19;20459;-55
2022/08/21 01:17:56;;;;;;;14.20;7.20;;;;;;;13.50;100.00;101448.66;7390548;19;20425;-50
2022/08/21 01:20:28;;;;;;;15.67;6.77;;;;;;;13.68;100.00;101458.03;7398265;19;20396;-54
2022/08/21 01:23:05;;;;;;;14.10;7.17;;;;;;;13.63;100.00;101458.72;7389875;19;20418;-55
2022/08/21 01:25:36;;;;;;;10.77;6.50;;;;;;;13.50;100.00;101464.22;7397055;19;20393;-55
2022/08/21 01:28:11;;;;;;;9.73;6.40;;;;;;;13.51;100.00;101458.22;7391017;19;20423;-53
2022/08/21 01:30:41;;;;;;;12.83;6.50;;;;;;;13.47;100.00;101462.38;7396857;19;20399;-54
2022/08/21 01:33:11;;;;;;;11.60;6.67;;;;;;;13.37;100.00;101458.50;7388777;19;21330;-51
2022/08/21 01:35:40;;;;;;;13.03;6.70;;;;;;;13.30;100.00;101458.19;7396113;19;20403;-57
2022/08/21 01:38:13;;;;;;;11.47;6.60;;;;;;;13.22;100.00;101457.84;7391254;19;20413;-56
2022/08/21 01:40:42;;;;;;;11.13;6.90;;;;;;;13.28;100.00;101452.91;7390714;19;21293;-56
2022/08/21 01:43:12;;;;;;;11.10;6.03;;;;;;;13.39;100.00;101453.38;7389146;19;20417;-48
2022/08/21 01:45:41;;;;;;;9.80;6.43;;;;;;;13.48;100.00;101452.88;7396577;19;20390;-53
2022/08/21 01:48:11;;;;;;;10.90;5.70;;;;;;;13.42;100.00;101448.31;7390403;19;20517;-53
2022/08/21 01:50:41;;;;;;;10.90;5.90;;;;;;;13.13;100.00;101449.69;7396731;19;20416;-56
2022/08/21 01:53:14;;;;;;;10.37;6.30;;;;;;;13.04;100.00;101445.91;7392793;19;20482;-51
2022/08/21 01:55:43;;;;;;;9.70;5.67;;;;;;;13.12;100.00;101437.56;7395976;19;20390;-56
2022/08/21 01:58:13;;;;;;;8.90;5.50;;;;;;;13.15;100.00;101433.41;7389612;19;20422;-57
2022/08/21 02:00:43;;;;;;;9.90;5.87;;;;;;;13.15;100.00;101429.91;7396246;19;20403;-51
2022/08/21 02:03:12;;;;;;;28.00;12.57;;;;;;;13.14;100.00;101425.56;7391993;19;20500;-56
2022/08/21 02:05:54;;;;;;;13.30;6.87;;;;;;;12.88;100.00;101433.09;7390662;19;20446;-59
2022/08/21 02:08:26;;;;;;;18.87;11.60;;;;;;;12.81;100.00;101432.84;7395476;19;20397;-46
2022/08/21 02:10:56;;;;;;;17.50;8.50;;;;;;;12.57;100.00;101417.13;7389557;19;20388;-49
2022/08/21 02:13:26;;;;;;;11.40;7.23;;;;;;;12.56;100.00;101417.94;7394697;19;20423;-52
2022/08/21 02:15:55;;;;;;;10.90;6.40;;;;;;;12.68;100.00;101404.66;7389041;19;20391;-54
2022/08/21 02:18:25;;;;;;;10.23;6.97;;;;;;;12.99;100.00;101395.59;7394970;19;20414;-57
2022/08/21 02:20:54;;;;;;;15.47;7.13;;;;;;;13.00;100.00;101397.38;7389734;19;20388;-59
2022/08/21 02:23:27;;;;;;;13.10;6.20;;;;;;;13.13;100.00;101384.94;7393657;19;20822;-51
2022/08/21 02:25:57;;;;;;;19.07;9.37;;;;;;;12.79;100.00;101386.97;7389254;19;20389;-57
2022/08/21 02:28:28;;;;;;;21.27;10.77;;;;;;;12.77;100.00;101393.81;7394962;19;20392;-55
2022/08/21 02:30:58;;;;;;;17.50;8.20;;;;;;;12.81;100.00;101390.50;7389501;19;20385;-52
2022/08/21 02:33:28;;;;;;;14.80;7.40;;;;;;;12.93;100.00;101388.44;7393072;19;20403;-54
2022/08/21 02:35:59;;;;;;;16.80;8.87;;;;;;;12.62;100.00;101397.47;7388580;19;20731;-54
2022/08/21 02:38:33;;;;;;;14.33;7.33;;;;;;;12.62;100.00;101394.91;7394664;19;20740;-57
2022/08/21 02:41:02;;;;;;;15.20;8.80;;;;;;;12.58;100.00;101393.00;7388081;19;20390;-55
2022/08/21 02:43:32;;;;;;;22.53;12.03;;;;;;;12.46;100.00;101383.00;7391494;19;20408;-56
2022/08/21 02:46:02;;;;;;;13.97;8.30;;;;;;;12.61;100.00;101390.53;7388202;19;20380;-56
2022/08/21 02:48:34;;;;;;;14.63;8.43;;;;;;;12.54;100.00;101388.50;7394360;19;20384;-57
2022/08/21 02:51:06;;;;;;;9.57;6.57;;;;;;;12.47;100.00;101384.78;7388757;19;20387;-55
2022/08/21 02:53:38;;;;;;;9.70;6.73;;;;;;;12.73;100.00;101374.69;7392560;19;20415;-56
2022/08/21 02:56:10;;;;;;;11.37;7.60;;;;;;;12.78;100.00;101375.72;7388421;19;20407;-55
2022/08/21 02:58:43;;;;;;;12.60;6.60;;;;;;;12.82;100.00;101362.09;7394873;19;20388;-50
2022/08/21 03:01:13;;;;;;;14.63;8.03;;;;;;;12.34;100.00;101373.00;7388672;19;20394;-53
2022/08/21 03:03:44;;;;;;;10.50;6.27;;;;;;;12.12;100.00;101366.88;7393143;19;20753;-53
2022/08/21 03:06:16;;;;;;;9.37;6.07;;;;;;;12.00;100.00;101356.81;7392173;19;20405;-57
2022/08/21 03:08:48;;;;;;;9.60;5.63;;;;;;;11.99;100.00;101349.88;7394242;19;20388;-48
2022/08/21 03:11:20;;;;;;;11.37;6.70;;;;;;;11.89;100.00;101350.25;7387261;19;20408;-49
2022/08/21 03:13:49;;;;;;;8.97;6.50;;;;;;;11.97;100.00;101351.50;7392412;19;20415;-55
2022/08/21 03:16:19;;;;;;;14.20;6.67;;;;;;;12.07;100.00;101341.59;7385668;19;20455;-53
2022/08/21 03:18:48;;;;;;;11.37;6.57;;;;;;;11.98;100.00;101339.44;7394046;19;20389;-56
2022/08/21 03:21:18;;;;;;;13.13;6.30;;;;;;;11.96;100.00;101334.22;7386309;19;20758;-59
2022/08/21 03:23:51;;;;;;;11.17;6.90;;;;;;;12.06;100.00;101329.50;7392198;19;20415;-50
2022/08/21 03:26:21;;;;;;;12.23;6.83;;;;;;;12.01;100.00;101326.66;7386915;19;20916;-59
2022/08/21 03:28:51;;;;;;;15.33;7.47;;;;;;;11.97;100.00;101323.06;7393590;19;20372;-48
2022/08/21 03:31:21;;;;;;;13.63;7.87;;;;;;;12.02;100.00;101313.78;7386761;19;20943;-56
2022/08/21 03:33:54;;;;;;;13.50;7.37;;;;;;;11.86;100.00;101308.75;7391487;19;20413;-54
2022/08/21 03:36:24;;;;;;;21.13;7.90;;;;;;;11.80;100.00;101300.72;7384974;19;20439;-58
2022/08/21 03:38:56;;;;;;;15.23;8.30;;;;;;;11.84;100.00;101295.75;7393354;19;20385;-56
2022/08/21 03:41:25;;;;;;;13.60;7.20;;;;;;;12.10;100.00;101285.72;7386491;19;20418;-55
2022/08/21 03:43:55;;;;;;;9.93;7.00;;;;;;;12.43;100.00;101289.72;7392306;19;20448;-57
2022/08/21 03:46:24;;;;;;;9.50;5.77;;;;;;;12.65;100.00;101280.25;7386327;19;20410;-55
2022/08/21 03:48:54;;;;;;;12.77;6.33;;;;;;;12.83;100.00;101286.19;7392913;19;20394;-53
2022/08/21 03:51:24;;;;;;;10.40;6.47;;;;;;;12.93;100.00;101294.34;7386818;19;20407;-50
2022/08/21 03:53:56;;;;;;;17.30;9.07;;;;;;;12.78;100.00;101302.38;7391428;19;20941;-59
2022/08/21 03:56:25;;;;;;;16.40;11.00;;;;;;;13.16;100.00;101304.72;7396151;19;20425;-48
2022/08/21 03:58:55;;;;;;;35.10;23.20;;;;;;;13.44;100.00;101305.81;7397516;19;20385;-52
2022/08/21 04:01:25;;;;;;;44.83;26.80;;;;;;;13.48;100.00;101313.81;7393534;19;20415;-53
2022/08/21 04:03:54;;;;;;;43.83;26.50;;;;;;;13.63;100.00;101323.88;7397847;19;20408;-58
2022/08/21 04:06:25;;;;;;;27.47;16.27;;;;;;;13.67;100.00;101330.06;7392977;19;20444;-52
2022/08/21 04:08:57;;;;;;;23.87;16.33;;;;;;;13.82;100.00;101342.75;7400187;19;20390;-48
2022/08/21 04:11:26;;;;;;;15.60;9.97;;;;;;;14.01;100.00;101343.44;7393174;19;20740;-60
2022/08/21 04:13:56;;;;;;;20.87;10.23;;;;;;;13.87;100.00;101364.56;7397360;19;20411;-52
2022/08/21 04:16:25;;;;;;;12.20;6.80;;;;;;;13.98;100.00;101371.84;7393141;19;20417;-55
2022/08/21 04:18:55;;;;;;;9.87;5.47;;;;;;;13.43;100.00;101392.19;7397241;19;20384;-51
2022/08/21 04:21:25;;;;;;;10.50;5.63;;;;;;;12.80;100.00;101394.81;7392111;19;20751;-51
2022/08/21 04:23:59;;;;;;;14.83;6.70;;;;;;;12.64;100.00;101382.03;7397335;19;20751;-53
2022/08/21 04:26:30;;;;;;;11.50;6.80;;;;;;;12.43;100.00;101375.97;7393567;19;20417;-57
2022/08/21 04:29:00;;;;;;;9.67;6.00;;;;;;;12.54;100.00;101371.28;7399677;19;20436;-56
2022/08/21 04:31:30;;;;;;;10.03;6.30;;;;;;;12.27;100.00;101366.66;7378706;19;20537;-57
2022/08/21 04:34:00;;;;;;;11.07;6.60;;;;;;;12.23;100.00;101356.09;7396536;19;20419;-53
2022/08/21 04:36:30;;;;;;;10.90;6.10;;;;;;;12.45;100.00;101350.16;7391988;19;20408;-56
2022/08/21 04:39:02;;;;;;;10.20;6.00;;;;;;;12.38;100.00;101353.31;7397208;19;20380;-55
2022/08/21 04:41:33;;;;;;;9.33;5.93;;;;;;;12.38;100.00;101343.88;7392163;19;20418;-57
2022/08/21 04:44:03;;;;;;;9.30;5.83;;;;;;;12.58;100.00;101342.94;7396380;19;20412;-55
2022/08/21 04:46:32;;;;;;;10.03;6.87;;;;;;;12.75;100.00;101341.97;7392696;19;20410;-58
2022/08/21 04:49:02;;;;;;;8.97;6.43;;;;;;;12.71;100.00;101344.34;7398685;19;20392;-51
2022/08/21 04:51:35;;;;;;;11.87;6.00;;;;;;;12.74;100.00;101349.66;7392602;19;20871;-58
2022/08/21 04:54:11;;;;;;;9.37;6.10;;;;;;;12.77;100.00;101353.25;7396112;19;20400;-55
2022/08/21 04:56:45;;;;;;;8.93;6.70;;;;;;;12.68;100.00;101352.88;7392314;19;20415;-53
2022/08/21 04:59:17;;;;;;;7.73;5.70;;;;;;;12.58;100.00;101356.78;7396060;19;20387;-53
2022/08/21 05:01:47;;;;;;;9.77;6.33;;;;;;;12.83;100.00;101355.22;7386926;19;20435;-56
2022/08/21 05:04:20;;;;;;;12.30;5.60;;;;;;;12.93;100.00;101362.53;7398829;19;20416;-54
2022/08/21 05:06:51;;;;;;;43.10;23.17;;;;;;;12.93;100.00;101365.13;7390548;19;20945;-56
2022/08/21 05:09:24;;;;;;;14.63;7.53;;;;;;;13.13;100.00;101362.47;7398232;19;20392;-54
2022/08/21 05:11:54;;;;;;;33.33;17.70;;;;;;;13.09;100.00;101368.38;7391865;19;20945;-54
2022/08/21 05:14:24;;;;;;;14.13;8.50;;;;;;;12.86;100.00;101370.03;7394711;19;20409;-55
2022/08/21 05:16:54;;;;;;;34.03;16.53;;;;;;;12.82;100.00;101366.41;7391293;19;20421;-52
2022/08/21 05:19:23;;;;;;;10.77;6.77;;;;;;;12.83;100.00;101363.88;7395365;19;20461;-51
2022/08/21 05:21:53;;;;;;;12.53;6.30;;;;;;;12.98;100.00;101362.75;7390235;19;20934;-53
2022/08/21 05:24:25;;;;;;;17.60;11.03;;;;;;;13.04;100.00;101360.44;7395118;19;20406;-53
2022/08/21 05:26:56;;;;;;;19.20;9.30;;;;;;;13.24;100.00;101363.81;7391011;19;20417;-52
2022/08/21 05:29:25;;;;;;;19.83;11.20;;;;;;;13.49;100.00;101359.63;7397297;19;20386;-55
2022/08/21 05:31:55;;;;;;;14.77;8.33;;;;;;;13.59;100.00;101373.84;7390368;19;20432;-55
2022/08/21 05:34:26;;;;;;;12.83;7.23;;;;;;;13.77;100.00;101372.78;7394445;19;20422;-52
2022/08/21 05:36:55;;;;;;;12.03;5.90;;;;;;;13.80;100.00;101378.13;7389282;19;20415;-53
2022/08/21 05:39:27;;;;;;;10.30;5.93;;;;;;;13.82;100.00;101379.06;7395550;19;20400;-55
2022/08/21 05:42:17;;;;;;;8.60;5.50;;;;;;;13.91;100.00;101387.16;7389529;19;20438;-51
2022/08/21 05:44:46;;;;;;;9.73;6.00;;;;;;;13.78;100.00;101384.94;7394606;19;20410;-53
2022/08/21 05:47:17;;;;;;;9.07;5.80;;;;;;;13.70;100.00;101391.53;7390247;19;20495;-56
2022/08/21 05:49:46;;;;;;;10.17;5.97;;;;;;;13.84;100.00;101394.69;7396568;19;20380;-54
2022/08/21 05:52:21;;;;;;;8.90;5.67;;;;;;;13.99;100.00;101392.66;7390629;19;20419;-55
2022/08/21 05:54:54;;;;;;;7.67;5.53;;;;;;;14.22;100.00;101391.75;7398784;19;20419;-56
2022/08/21 05:57:25;;;;;;;9.77;5.50;;;;;;;14.30;100.00;101390.31;7390021;19;20493;-53
2022/08/21 05:59:55;;;;;;;9.23;5.70;;;;;;;14.28;100.00;101392.88;7394466;19;20383;-56
2022/08/21 06:02:25;;;;;;;10.50;5.73;;;;;;;14.21;100.00;101393.47;7389371;19;20415;-54
2022/08/21 06:04:54;;;;;;;9.27;5.17;;;;;;;14.47;100.00;101410.81;7393880;19;20407;-57
2022/08/21 06:07:24;;;;;;;10.20;5.77;;;;;;;14.56;100.00;101392.97;7387822;19;20422;-51
2022/08/21 06:09:56;;;;;;;8.37;5.00;;;;;;;14.63;100.00;101394.06;7396170;19;20388;-57
2022/08/21 06:12:26;;;;;;;10.57;5.37;;;;;;;14.61;100.00;101401.78;7390631;19;20442;-59
2022/08/21 06:14:55;;;;;;;11.87;6.27;;;;;;;14.56;100.00;101400.78;7397306;19;20424;-55
2022/08/21 06:17:25;;;;;;;9.60;5.50;;;;;;;14.47;100.00;101410.81;7389642;19;20450;-57
2022/08/21 06:19:56;;;;;;;12.23;6.53;;;;;;;14.27;100.00;101410.97;7397806;19;20398;-56
2022/08/21 06:22:25;;;;;;;10.80;5.80;;;;;;;14.42;100.00;101398.53;7388266;19;20427;-56
2022/08/21 06:24:57;;;;;;;10.20;6.00;;;;;;;14.58;100.00;101397.38;7394090;19;20429;-51
2022/08/21 06:27:27;;;;;;;10.37;6.00;;;;;;;14.50;100.00;101413.53;7391403;19;20443;-54
2022/08/21 06:29:57;;;;;;;10.97;6.10;;;;;;;14.54;100.00;101402.41;7396923;19;20396;-54
2022/08/21 06:32:26;;;;;;;11.97;5.20;;;;;;;14.83;100.00;101405.19;7387554;19;20429;-57
2022/08/21 06:34:56;;;;;;;11.50;5.97;;;;;;;14.80;100.00;101392.09;7395490;19;20431;-57
2022/08/21 06:37:25;;;;;;;15.50;6.90;;;;;;;14.72;100.00;101391.81;7387751;19;20440;-54
2022/08/21 06:39:57;;;;;;;7.27;5.00;;;;;;;14.96;100.00;101399.59;7393497;19;20393;-50
2022/08/21 06:42:28;;;;;;;8.30;5.00;;;;;;;15.13;100.00;101401.88;7388206;19;20466;-57
2022/08/21 06:45:00;;;;;;;10.63;5.00;;;;;;;15.14;100.00;101413.13;7392437;19;20938;-55
2022/08/21 06:47:29;;;;;;;9.67;5.90;;;;;;;15.38;100.00;101415.66;7387782;19;20414;-53
2022/08/21 06:49:59;;;;;;;10.47;5.17;;;;;;;15.51;100.00;101420.44;7394748;19;20393;-55
2022/08/21 06:52:29;;;;;;;8.20;4.73;;;;;;;15.70;100.00;101430.53;7388591;19;20430;-53
2022/08/21 06:55:01;;;;;;;10.70;4.73;;;;;;;15.48;100.00;101440.25;7392321;19;20418;-57
2022/08/21 06:57:30;;;;;;;10.00;5.30;;;;;;;15.47;100.00;101454.06;7388365;19;20413;-52
2022/08/21 07:00:00;;;;;;;15.30;7.17;;;;;;;15.50;100.00;101460.25;7394929;19;20399;-57
2022/08/21 07:02:30;;;;;;;10.10;5.97;;;;;;;15.56;100.00;101474.28;7378967;19;20408;-57
2022/08/21 07:05:00;;;;;;;30.53;15.03;;;;;;;15.66;100.00;101490.22;7392235;19;20422;-53
2022/08/21 07:07:46;;;;;;;16.73;7.80;;;;;;;15.77;100.00;101506.22;7387689;19;20417;-57
2022/08/21 07:10:19;;;;;;;6.33;4.57;;;;;;;15.93;100.00;101537.94;7395056;19;20404;-51
2022/08/21 07:12:52;;;;;;;10.07;4.07;;;;;;;16.02;100.00;101569.50;7386143;19;20486;-52
2022/08/21 07:15:30;;;;;;;7.80;3.80;;;;;;;16.13;100.00;101590.66;7394048;19;20389;-57
2022/08/21 07:18:00;;;;;;;7.70;4.20;;;;;;;16.31;100.00;101642.41;7385722;19;20963;-55
2022/08/21 07:20:30;;;;;;;11.33;3.70;;;;;;;16.39;100.00;101688.66;7391942;19;20393;-57
2022/08/21 07:23:01;;;;;;;8.20;4.33;;;;;;;16.44;100.00;101750.47;7382455;19;20419;-52
2022/08/21 07:25:33;;;;;;;25.97;11.77;;;;;;;16.60;100.00;101787.44;7393487;19;20755;-56
2022/08/21 07:28:03;;;;;;;18.17;7.30;;;;;;;16.70;100.00;101833.81;7386177;19;20418;-56
2022/08/21 07:30:32;;;;;;;10.03;3.90;;;;;;;16.79;100.00;101874.94;7392864;19;20919;-54
2022/08/21 07:33:02;;;;;;;7.47;3.10;;;;;;;16.83;100.00;101967.16;7379997;19;20453;-54
2022/08/21 07:35:33;;;;;;;8.93;3.70;;;;;;;16.94;100.00;102010.13;7393138;19;20823;-54
2022/08/21 07:38:02;;;;;;;6.13;3.40;;;;;;;17.08;100.00;102036.69;7375091;19;20463;-55
2022/08/21 07:40:34;;;;;;;9.23;4.00;;;;;;;17.21;100.00;102089.25;7391365;19;20383;-57
2022/08/21 07:43:04;;;;;;;6.20;3.33;;;;;;;17.30;100.00;102140.88;7374999;19;20494;-52
2022/08/21 07:45:33;;;;;;;6.53;3.10;;;;;;;17.44;100.00;102172.66;7397110;19;20391;-57
2022/08/21 07:48:03;;;;;;;9.50;4.87;;;;;;;17.46;100.00;102286.69;7380994;19;20426;-55
2022/08/21 07:50:32;;;;;;;8.43;3.83;;;;;;;17.58;100.00;102384.53;7392643;19;20387;-59
2022/08/21 07:53:02;;;;;;;14.23;3.53;;;;;;;17.71;100.00;102428.53;7372097;19;20940;-55
2022/08/21 07:55:31;;;;;;;8.37;3.50;;;;;;;17.88;100.00;102413.50;7392646;19;20391;-53
2022/08/21 07:58:04;;;;;;;6.53;2.60;;;;;;;18.06;100.00;102368.06;7380330;19;20428;-52
2022/08/21 08:00:34;;;;;;;5.37;2.63;;;;;;;18.20;100.00;102311.97;7390869;19;20731;-56
2022/08/21 08:03:03;;;;;;;9.03;2.97;;;;;;;18.29;100.00;102213.84;7363212;19;20951;-51
2022/08/21 08:05:36;;;;;;;6.73;2.20;;;;;;;18.49;100.00;102105.66;7392475;19;20402;-55
2022/08/21 08:08:06;;;;;;;6.90;2.20;;;;;;;18.80;100.00;101995.00;7381926;19;20423;-58
2022/08/21 08:10:36;;;;;;;7.40;2.33;;;;;;;18.95;100.00;101924.81;7392086;19;20394;-58
2022/08/21 08:13:08;;;;;;;5.70;2.03;;;;;;;18.97;100.00;101781.91;7372881;19;20925;-56
2022/08/21 08:15:39;;;;;;;17.77;4.00;;;;;;;18.94;100.00;101689.47;7392321;19;20388;-55
2022/08/21 08:18:11;;;;;;;23.40;8.03;;;;;;;18.92;100.00;101617.97;7382402;19;20415;-56
2022/08/21 08:20:40;;;;;;;10.60;3.80;;;;;;;19.03;100.00;101570.28;7390218;19;20388;-53
2022/08/21 08:23:12;;;;;;;17.67;6.60;;;;;;;19.11;100.00;101493.72;7378095;19;20433;-57
2022/08/21 08:25:42;;;;;;;12.80;5.33;;;;;;;19.18;100.00;101458.09;7391878;19;20386;-54
2022/08/21 08:28:14;;;;;;;29.53;10.93;;;;;;;19.32;100.00;101455.72;7385001;19;20411;-57
2022/08/21 08:30:46;;;;;;;7.83;2.27;;;;;;;19.34;100.00;101456.63;7391590;19;20992;-56
2022/08/21 08:33:16;;;;;;;7.00;2.83;;;;;;;19.27;100.00;101414.66;7371827;19;20767;-55
2022/08/21 08:35:48;;;;;;;9.27;4.13;;;;;;;19.27;100.00;101438.22;7391468;19;20398;-55
2022/08/21 08:38:18;;;;;;;11.20;3.00;;;;;;;19.30;100.00;101442.63;7381157;19;20411;-54
2022/08/21 08:40:56;;;;;;;10.83;2.50;;;;;;;19.49;100.00;101446.38;7392539;19;20392;-58
2022/08/21 08:43:29;;;;;;;7.07;2.47;;;;;;;19.63;100.00;101407.34;7390220;19;20955;-54
2022/08/21 08:46:01;;;;;;;6.50;2.10;;;;;;;19.63;100.00;101335.81;7398847;19;20945;-55
2022/08/21 08:48:40;;;;;;;24.63;7.60;;;;;;;19.49;100.00;101272.84;7392980;19;20403;-54
2022/08/21 08:51:12;;;;;;;14.50;4.27;;;;;;;19.47;100.00;101264.09;7389883;19;20396;-53
2022/08/21 08:53:50;;;;;;;6.27;2.40;;;;;;;19.59;100.00;101224.09;7395835;19;20494;-59
2022/08/21 08:56:24;;;;;;;9.10;2.43;;;;;;;19.70;100.00;101171.00;7388594;19;20387;-56
2022/08/21 08:58:57;;;;;;;6.30;2.37;;;;;;;19.72;100.00;101123.91;7398162;19;20384;-53
2022/08/21 09:01:26;;;;;;;7.40;2.13;;;;;;;19.92;100.00;101103.16;7388136;19;20479;-55
2022/08/21 09:03:57;;;;;;;50.57;21.63;;;;;;;20.17;100.00;100988.16;7396370;19;20419;-57
2022/08/21 09:06:39;;;;;;;5.27;2.00;;;;;;;20.33;100.00;100883.44;7388790;19;20431;-55
2022/08/21 09:09:20;;;;;;;21.33;7.60;;;;;;;20.35;100.00;100745.47;7397231;19;20391;-56
2022/08/21 09:11:55;;;;;;;12.20;4.00;;;;;;;20.44;100.00;100673.84;7378302;19;20413;-56
2022/08/21 09:14:30;;;;;;;13.83;5.13;;;;;;;20.56;100.00;100602.25;7395367;19;20422;-54
2022/08/21 09:17:06;;;;;;;14.97;5.77;;;;;;;20.40;100.00;100460.78;7387833;19;20982;-55
2022/08/21 09:19:46;;;;;;;10.37;5.07;;;;;;;20.27;100.00;100441.63;7398297;19;20680;-56
2022/08/21 09:22:21;;;;;;;10.40;3.60;;;;;;;20.32;100.00;100390.13;7382983;19;20419;-56
2022/08/21 09:24:59;;;;;;;10.90;4.03;;;;;;;20.41;100.00;100360.34;7394279;19;20423;-56
2022/08/21 09:27:29;;;;;;;9.70;2.73;;;;;;;20.58;100.00;100355.03;7392870;19;20445;-55
2022/08/21 09:30:01;;;;;;;23.60;9.43;;;;;;;20.73;100.00;100332.22;7397148;19;20384;-53
2022/08/21 09:32:34;;;;;;;17.80;5.90;;;;;;;20.74;100.00;100328.72;7382113;19;20418;-57
2022/08/21 09:35:09;;;;;;;9.03;4.60;;;;;;;20.92;100.00;100301.53;7398074;19;20430;-53
2022/08/21 09:37:51;;;;;;;9.20;3.83;;;;;;;21.07;100.00;100337.22;7382871;19;20425;-57
2022/08/21 09:40:30;;;;;;;13.33;5.83;;;;;;;21.06;100.00;100411.53;7398747;19;20399;-54
2022/08/21 09:43:02;;;;;;;11.93;4.80;;;;;;;20.94;100.00;100498.13;7377511;19;20955;-55
2022/08/21 09:45:35;;;;;;;18.93;7.23;;;;;;;20.98;100.00;100612.63;7396502;19;20576;-52
2022/08/21 09:48:14;;;;;;;22.30;7.20;;;;;;;21.08;100.00;100735.00;7379214;19;20443;-56
2022/08/21 09:50:47;;;;;;;12.60;5.03;;;;;;;20.95;100.00;100767.31;7396632;19;20396;-59
2022/08/21 09:53:22;;;;;;;7.77;3.13;;;;;;;20.94;100.00;100786.56;7371515;19;20407;-54
2022/08/21 09:58:38;;;;;;;12.77;4.40;;;;;;;21.18;100.00;100796.16;7393903;19;20960;-60
2022/08/21 10:01:16;;;;;;;6.07;2.47;;;;;;;21.50;100.00;100815.31;7394823;19;20399;-54
2022/08/21 10:03:46;;;;;;;27.63;12.17;;;;;;;21.60;100.00;100824.94;7358842;19;20514;-58
2022/08/21 10:06:26;;;;;;;7.67;2.67;;;;;;;21.53;100.00;100838.94;7396046;19;21047;-59
2022/08/21 10:09:07;;;;;;;12.27;6.43;;;;;;;21.54;100.00;100867.78;7371249;19;20434;-57
2022/08/21 10:11:42;;;;;;;25.30;11.60;;;;;;;21.42;100.00;100873.06;7396009;19;20383;-54
2022/08/21 10:14:18;;;;;;;35.00;14.00;;;;;;;21.44;100.00;100879.22;7382599;19;20815;-56
2022/08/21 10:16:59;;;;;;;10.10;2.83;;;;;;;21.40;100.00;100922.94;7394925;19;20386;-57
2022/08/21 10:19:34;;;;;;;10.07;4.23;;;;;;;20.86;100.00;100921.16;7381762;19;21007;-52
2022/08/21 10:22:13;;;;;;;16.57;6.40;;;;;;;20.92;100.00;100930.81;7393818;19;20383;-56
2022/08/21 10:24:55;;;;;;;10.87;4.40;;;;;;;21.04;100.00;100932.56;7384548;19;20420;-53
2022/08/21 10:27:32;;;;;;;9.07;3.83;;;;;;;21.35;100.00;100950.94;7395141;19;20642;-51
2022/08/21 10:30:07;;;;;;;15.93;7.80;;;;;;;21.14;100.00;100963.19;7372461;19;20419;-55
2022/08/21 10:32:49;;;;;;;7.50;2.40;;;;;;;21.27;100.00;100950.06;7394599;19;20388;-55
2022/08/21 10:35:24;;;;;;;10.87;5.60;;;;;;;21.51;100.00;100937.78;7388041;19;20421;-59
2022/08/21 10:38:06;;;;;;;14.80;6.37;;;;;;;21.71;100.00;100946.56;7393823;19;20382;-57
2022/08/21 10:40:40;;;;;;;33.73;14.90;;;;;;;21.80;100.00;100945.66;7383979;19;20433;-52
2022/08/21 10:43:21;;;;;;;9.63;2.70;;;;;;;21.92;100.00;100947.41;7393509;19;20762;-55
2022/08/21 10:45:59;;;;;;;20.83;9.40;;;;;;;22.08;100.00;100950.84;7387484;19;20411;-58
2022/08/21 10:48:38;;;;;;;8.23;2.50;;;;;;;22.30;100.00;100947.28;7394551;19;20383;-55
2022/08/21 10:51:13;;;;;;;26.93;10.63;;;;;;;21.55;100.00;100948.31;7393259;19;20417;-56
2022/08/21 10:53:54;;;;;;;11.83;3.90;;;;;;;21.60;100.00;100885.28;7385583;19;21145;-57
2022/08/21 10:56:25;;;;;;;49.00;15.63;;;;;;;21.78;100.00;100883.53;7394425;19;20473;-56
2022/08/21 10:59:14;;;;;;;10.30;2.90;;;;;;;22.18;100.00;100893.00;7387678;19;20422;-50
2022/08/21 11:01:48;;;;;;;22.87;10.23;;;;;;;22.34;100.00;100941.09;7393360;19;20459;-56
2022/08/21 11:04:24;;;;;;;6.43;3.30;;;;;;;22.31;100.00;100949.03;7385217;19;20413;-53
2022/08/21 11:07:04;;;;;;;70.20;39.40;;;;;;;21.93;100.00;100948.25;7394149;19;20412;-60
2022/08/21 11:09:48;;;;;;;22.63;12.00;;;;;;;21.92;100.00;100976.28;7385657;19;20433;-55
2022/08/21 11:12:25;;;;;;;24.27;12.70;;;;;;;22.22;100.00;100990.22;7393934;19;20392;-58
2022/08/21 11:14:58;;;;;;;13.10;5.80;;;;;;;22.37;100.00;101007.66;7387359;19;20442;-49
2022/08/21 11:17:33;;;;;;;15.50;7.70;;;;;;;22.64;100.00;101011.13;7393139;19;20388;-52
2022/08/21 11:20:12;;;;;;;4.47;1.90;;;;;;;22.85;100.00;101016.25;7387610;19;20437;-58
2022/08/21 11:22:48;;;;;;;6.57;2.20;;;;;;;23.01;100.00;101020.56;7391588;19;20394;-56
2022/08/21 11:25:26;;;;;;;7.50;2.47;;;;;;;23.17;100.00;101016.06;7387130;19;20431;-55
2022/08/21 11:28:08;;;;;;;8.73;2.40;;;;;;;22.71;100.00;101022.47;7393322;19;20944;-53
2022/08/21 11:30:51;;;;;;;7.67;2.00;;;;;;;22.32;100.00;101011.19;7387004;19;20423;-52
2022/08/21 11:33:31;;;;;;;15.20;7.90;;;;;;;22.67;100.00;101010.22;7392303;19;20425;-59
2022/08/21 11:36:12;;;;;;;6.30;2.60;;;;;;;22.44;100.00;101012.91;7391953;19;20947;-51
2022/08/21 11:38:43;;;;;;;43.50;16.23;;;;;;;22.35;100.00;101024.34;7386916;19;20424;-56